createdAt,value
2023-03-03T00:02:14.701Z,13.61
2023-03-03T00:04:40.891Z,13.61
2023-03-03T00:07:07.077Z,13.61
2023-03-03T00:09:33.221Z,13.59
2023-03-03T00:11:59.420Z,13.58
2023-03-03T00:14:25.670Z,13.60
2023-03-03T00:16:51.835Z,13.60
2023-03-03T00:19:17.982Z,13.59
2023-03-03T00:21:44.164Z,13.59
2023-03-03T00:24:10.267Z,13.59
2023-03-03T00:26:36.407Z,13.58
2023-03-03T00:29:02.600Z,13.58
2023-03-03T00:31:28.726Z,13.58
2023-03-03T00:33:54.979Z,13.59
2023-03-03T00:36:21.484Z,13.60
2023-03-03T00:38:47.733Z,13.58
2023-03-03T00:41:13.899Z,13.56
2023-03-03T00:43:40.082Z,13.55
2023-03-03T00:46:06.282Z,13.56
2023-03-03T00:48:32.472Z,13.54
2023-03-03T00:50:58.684Z,13.54
2023-03-03T00:53:24.894Z,13.57
2023-03-03T00:55:51.016Z,13.58
2023-03-03T00:58:17.144Z,13.57
2023-03-03T01:00:43.281Z,13.57
2023-03-03T01:03:09.395Z,13.56
2023-03-03T01:05:35.509Z,13.56
2023-03-03T01:08:01.656Z,13.56
2023-03-03T01:10:27.781Z,13.55
2023-03-03T01:12:53.900Z,13.55
2023-03-03T01:15:19.991Z,13.55
2023-03-03T01:17:46.128Z,13.55
2023-03-03T01:20:14.349Z,13.55
2023-03-03T01:22:40.525Z,13.54
2023-03-03T01:25:06.664Z,13.54
2023-03-03T01:27:32.858Z,13.54
2023-03-03T01:29:58.957Z,13.54
2023-03-03T01:32:25.135Z,13.54
2023-03-03T01:34:51.330Z,13.53
2023-03-03T01:37:17.495Z,13.53
2023-03-03T01:39:43.608Z,13.52
2023-03-03T01:42:09.813Z,13.51
2023-03-03T01:44:35.954Z,13.52
2023-03-03T01:47:02.049Z,13.51
2023-03-03T01:49:28.205Z,13.52
2023-03-03T01:51:54.332Z,13.52
2023-03-03T01:54:20.454Z,13.53
2023-03-03T01:56:46.572Z,13.51
2023-03-03T01:59:12.680Z,13.51
2023-03-03T02:01:38.797Z,13.51
2023-03-03T02:04:05.228Z,13.52
2023-03-03T02:06:31.362Z,13.51
2023-03-03T02:08:57.463Z,13.50
2023-03-03T02:11:23.620Z,13.51
2023-03-03T02:13:49.719Z,13.51
2023-03-03T02:16:15.942Z,13.50
2023-03-03T02:18:42.105Z,13.50
2023-03-03T02:21:08.205Z,13.50
2023-03-03T02:23:34.311Z,13.50
2023-03-03T02:26:00.556Z,13.48
2023-03-03T02:28:26.657Z,13.49
2023-03-03T02:30:52.756Z,13.49
2023-03-03T02:33:18.944Z,13.49
2023-03-03T02:35:45.088Z,13.49
2023-03-03T02:38:11.219Z,13.48
2023-03-03T02:40:37.342Z,13.49
2023-03-03T02:43:03.463Z,13.49
2023-03-03T02:45:29.718Z,13.50
2023-03-03T02:47:55.892Z,13.48
2023-03-03T02:50:22.030Z,13.47
2023-03-03T02:52:48.139Z,13.47
2023-03-03T02:55:14.264Z,13.48
2023-03-03T02:57:40.375Z,13.47
2023-03-03T03:00:06.474Z,13.48
2023-03-03T03:02:32.607Z,13.46
2023-03-03T03:04:58.711Z,13.46
2023-03-03T03:07:24.812Z,13.47
2023-03-03T03:09:51.184Z,13.47
2023-03-03T03:12:17.293Z,13.47
2023-03-03T03:14:43.394Z,13.46
2023-03-03T03:17:09.516Z,13.46
2023-03-03T03:19:35.646Z,13.45
2023-03-03T03:22:01.768Z,13.45
2023-03-03T03:24:27.894Z,13.46
2023-03-03T03:26:54.007Z,13.48
2023-03-03T03:29:20.113Z,13.46
2023-03-03T03:31:46.232Z,13.48
2023-03-03T03:34:12.337Z,13.47
2023-03-03T03:36:38.435Z,13.46
2023-03-03T03:39:04.550Z,13.45
2023-03-03T03:41:30.649Z,13.46
2023-03-03T03:43:56.752Z,13.46
2023-03-03T03:46:23.003Z,13.45
2023-03-03T03:48:49.132Z,13.45
2023-03-03T03:51:15.217Z,13.46
2023-03-03T03:53:41.347Z,13.44
2023-03-03T03:56:07.459Z,13.43
2023-03-03T03:58:33.582Z,13.43
2023-03-03T04:00:59.716Z,13.43
2023-03-03T04:03:25.912Z,13.44
2023-03-03T04:05:52.101Z,13.43
2023-03-03T04:08:18.210Z,13.42
2023-03-03T04:10:44.301Z,13.41
2023-03-03T04:13:10.395Z,13.42
2023-03-03T04:15:36.552Z,13.42
2023-03-03T04:18:02.662Z,13.43
2023-03-03T04:20:28.776Z,13.42
2023-03-03T04:22:54.917Z,13.42
2023-03-03T04:25:21.010Z,13.42
2023-03-03T04:27:47.110Z,13.42
2023-03-03T04:30:13.297Z,13.42
2023-03-03T04:32:39.406Z,13.40
2023-03-03T04:35:08.424Z,13.39
2023-03-03T04:37:34.857Z,13.40
2023-03-03T04:40:00.975Z,13.40
2023-03-03T04:42:27.095Z,13.41
2023-03-03T04:44:53.217Z,13.40
2023-03-03T04:47:19.319Z,13.39
2023-03-03T04:49:45.423Z,13.40
2023-03-03T04:52:11.561Z,13.40
2023-03-03T04:54:37.654Z,13.38
2023-03-03T04:57:03.743Z,13.38
2023-03-03T04:59:29.877Z,13.38
2023-03-03T05:01:56.072Z,13.39
2023-03-03T05:04:22.253Z,13.38
2023-03-03T05:06:48.383Z,13.37
2023-03-03T05:09:14.484Z,13.38
2023-03-03T05:11:40.608Z,13.37
2023-03-03T05:14:06.886Z,13.37
2023-03-03T05:16:35.881Z,13.38
2023-03-03T05:19:02.234Z,13.37
2023-03-03T05:21:32.684Z,13.36
2023-03-03T05:23:59.804Z,13.37
2023-03-03T05:26:25.976Z,13.37
2023-03-03T05:28:52.306Z,13.37
2023-03-03T05:31:18.451Z,13.37
2023-03-03T05:33:44.559Z,13.38
2023-03-03T05:36:10.690Z,13.38
2023-03-03T05:38:36.790Z,13.37
2023-03-03T05:41:02.899Z,13.38
2023-03-03T05:43:29.012Z,13.38
2023-03-03T05:45:55.102Z,13.37
2023-03-03T05:48:21.243Z,13.37
2023-03-03T05:50:47.530Z,13.38
2023-03-03T05:53:13.712Z,13.37
2023-03-03T05:55:39.809Z,13.37
2023-03-03T05:58:05.915Z,13.37
2023-03-03T06:00:32.026Z,13.37
2023-03-03T06:02:58.209Z,13.36
2023-03-03T06:05:24.364Z,13.36
2023-03-03T06:07:50.463Z,13.36
2023-03-03T06:10:16.600Z,13.36
2023-03-03T06:12:42.700Z,13.36
2023-03-03T06:15:08.854Z,13.36
2023-03-03T06:17:34.996Z,13.36
2023-03-03T06:20:01.276Z,13.36
2023-03-03T06:22:27.377Z,13.35
2023-03-03T06:24:57.573Z,13.35
2023-03-03T06:27:23.673Z,13.36
2023-03-03T06:29:49.799Z,13.35
2023-03-03T06:32:27.934Z,13.35
2023-03-03T06:34:54.147Z,13.35
2023-03-03T06:37:20.259Z,13.34
2023-03-03T06:39:46.750Z,13.34
2023-03-03T06:44:59.354Z,13.34
2023-03-03T06:47:25.482Z,13.34
2023-03-03T06:49:53.621Z,13.33
2023-03-03T06:52:27.056Z,13.33
2023-03-03T06:54:56.076Z,13.34
2023-03-03T06:57:22.272Z,13.32
2023-03-03T06:59:51.223Z,13.32
2023-03-03T07:02:17.342Z,13.31
2023-03-03T07:04:43.526Z,13.32
2023-03-03T07:07:09.717Z,13.32
2023-03-03T07:09:35.901Z,13.33
2023-03-03T07:12:02.049Z,13.31
2023-03-03T07:14:28.165Z,13.32
2023-03-03T07:16:54.323Z,13.32
2023-03-03T07:19:20.434Z,13.31
2023-03-03T07:21:46.537Z,13.30
2023-03-03T07:24:12.641Z,13.31
2023-03-03T07:26:38.837Z,13.30
2023-03-03T07:29:04.964Z,13.30
2023-03-03T07:31:31.664Z,13.30
2023-03-03T07:33:57.777Z,13.30
2023-03-03T07:36:23.875Z,13.30
2023-03-03T07:38:49.997Z,13.29
2023-03-03T07:41:16.102Z,13.31
2023-03-03T07:43:42.231Z,13.28
2023-03-03T07:46:08.384Z,13.29
2023-03-03T07:48:34.491Z,13.30
2023-03-03T07:51:00.637Z,13.29
2023-03-03T07:53:26.773Z,13.29
2023-03-03T07:55:52.883Z,13.29
2023-03-03T07:58:18.974Z,13.29
2023-03-03T08:00:45.185Z,13.29
2023-03-03T08:03:11.322Z,13.28
2023-03-03T08:05:37.425Z,13.28
2023-03-03T08:08:03.583Z,13.28
2023-03-03T08:10:29.796Z,13.27
2023-03-03T08:12:55.929Z,13.27
2023-03-03T08:15:22.060Z,13.27
2023-03-03T08:17:48.213Z,13.27
2023-03-03T08:20:14.322Z,13.27
2023-03-03T08:22:40.447Z,13.25
2023-03-03T08:25:06.538Z,13.25
2023-03-03T08:27:32.630Z,13.26
2023-03-03T08:29:58.779Z,13.25
2023-03-03T08:32:24.972Z,13.26
2023-03-03T08:34:51.140Z,13.25
2023-03-03T08:37:17.269Z,13.24
2023-03-03T08:39:43.375Z,13.25
2023-03-03T08:42:09.584Z,13.25
2023-03-03T08:44:35.901Z,13.25
2023-03-03T08:47:02.033Z,13.25
2023-03-03T08:49:28.137Z,13.25
2023-03-03T08:51:54.297Z,13.24
2023-03-03T08:54:20.435Z,13.25
2023-03-03T08:56:46.552Z,13.24
2023-03-03T08:59:12.659Z,13.25
2023-03-03T09:01:38.757Z,13.25
2023-03-03T09:04:04.843Z,13.24
2023-03-03T09:06:31.007Z,13.22
2023-03-03T09:08:57.119Z,13.22
2023-03-03T09:11:23.246Z,13.22
2023-03-03T09:13:49.376Z,13.23
2023-03-03T09:16:15.493Z,13.24
2023-03-03T09:18:41.661Z,13.24
2023-03-03T09:21:07.850Z,13.24
2023-03-03T09:23:33.983Z,13.24
2023-03-03T09:26:00.105Z,13.22
2023-03-03T09:28:26.266Z,13.23
2023-03-03T09:30:52.366Z,13.24
2023-03-03T09:33:18.491Z,13.23
2023-03-03T09:35:44.648Z,13.21
2023-03-03T09:38:10.757Z,13.24
2023-03-03T09:40:36.855Z,13.22
2023-03-03T09:43:02.987Z,13.21
2023-03-03T09:45:29.127Z,13.23
2023-03-03T09:47:55.262Z,13.22
2023-03-03T09:50:21.399Z,13.21
2023-03-03T09:52:47.596Z,13.22
2023-03-03T09:55:13.739Z,13.21
2023-03-03T09:57:39.879Z,13.22
2023-03-03T10:00:06.007Z,13.21
2023-03-03T10:02:32.247Z,13.21
2023-03-03T10:04:58.442Z,13.20
2023-03-03T10:07:24.555Z,13.20
2023-03-03T10:09:50.668Z,13.20
2023-03-03T10:12:17.862Z,13.20
2023-03-03T10:14:44.078Z,13.19
2023-03-03T10:17:10.203Z,13.20
2023-03-03T10:19:36.430Z,13.21
2023-03-03T10:22:02.597Z,13.21
2023-03-03T10:24:28.724Z,13.19
2023-03-03T10:27:11.799Z,13.20
2023-03-03T10:29:39.383Z,13.19
2023-03-03T10:32:05.775Z,13.20
2023-03-03T10:34:31.961Z,13.19
2023-03-03T10:36:58.066Z,13.20
2023-03-03T10:39:24.404Z,13.20
2023-03-03T10:41:50.515Z,13.19
2023-03-03T10:44:16.630Z,13.19
2023-03-03T10:46:42.810Z,13.20
2023-03-03T10:49:08.925Z,13.19
2023-03-03T10:51:35.061Z,13.20
2023-03-03T10:54:01.243Z,13.19
2023-03-03T10:56:27.460Z,13.18
2023-03-03T10:58:53.633Z,13.17
2023-03-03T11:01:20.137Z,13.19
2023-03-03T11:03:47.090Z,13.17
2023-03-03T11:06:13.191Z,13.18
2023-03-03T11:08:39.408Z,13.17
2023-03-03T11:11:05.519Z,13.17
2023-03-03T11:13:31.651Z,13.19
2023-03-03T11:15:57.836Z,13.18
2023-03-03T11:18:25.901Z,13.18
2023-03-03T11:20:52.186Z,13.19
2023-03-03T11:23:18.320Z,13.19
2023-03-03T11:25:44.442Z,13.19
2023-03-03T11:28:10.596Z,13.19
2023-03-03T11:30:36.982Z,13.19
2023-03-03T11:33:03.174Z,13.20
2023-03-03T11:35:29.373Z,13.20
2023-03-03T11:37:55.563Z,13.20
2023-03-03T11:40:21.717Z,13.20
2023-03-03T11:42:47.807Z,13.21
2023-03-03T11:45:14.022Z,13.21
2023-03-03T11:47:40.141Z,13.21
2023-03-03T11:50:06.279Z,13.22
2023-03-03T11:52:32.415Z,13.21
2023-03-03T11:54:58.594Z,13.21
2023-03-03T11:57:24.804Z,13.21
2023-03-03T11:59:50.929Z,13.20
2023-03-03T12:02:17.072Z,13.20
2023-03-03T12:04:43.243Z,13.21
2023-03-03T12:07:18.519Z,13.21
2023-03-03T12:09:45.355Z,13.21
2023-03-03T12:12:11.498Z,13.21
2023-03-03T12:14:37.588Z,13.22
2023-03-03T12:17:03.761Z,13.20
2023-03-03T12:19:29.910Z,13.21
2023-03-03T12:21:56.110Z,13.20
2023-03-03T12:24:22.317Z,13.21
2023-03-03T12:26:48.512Z,13.20
2023-03-03T12:29:14.734Z,13.20
2023-03-03T12:31:41.035Z,13.20
2023-03-03T12:34:07.357Z,13.21
2023-03-03T12:36:33.536Z,13.21
2023-03-03T12:39:10.101Z,13.21
2023-03-03T12:41:36.399Z,13.20
2023-03-03T12:44:02.642Z,13.20
2023-03-03T12:46:30.306Z,13.20
2023-03-03T12:48:56.648Z,13.20
2023-03-03T12:51:22.855Z,13.19
2023-03-03T12:53:49.063Z,13.20
2023-03-03T12:56:15.272Z,13.20
2023-03-03T12:58:43.089Z,13.19
2023-03-03T13:01:09.328Z,13.18
2023-03-03T13:03:41.084Z,13.18
2023-03-03T13:06:12.731Z,13.18
2023-03-03T13:08:39.158Z,13.18
2023-03-03T13:11:05.409Z,13.19
2023-03-03T13:13:31.643Z,13.18
2023-03-03T13:15:59.615Z,13.19
2023-03-03T13:18:27.182Z,13.20
2023-03-03T13:20:53.370Z,13.20
2023-03-03T13:23:19.586Z,13.19
2023-03-03T13:25:45.877Z,13.18
2023-03-03T13:28:12.085Z,13.19
2023-03-03T13:30:38.443Z,13.19
2023-03-03T13:33:04.676Z,13.19
2023-03-03T13:35:31.185Z,13.20
2023-03-03T13:37:57.520Z,13.20
2023-03-03T13:40:23.774Z,13.20
2023-03-03T13:42:49.995Z,13.20
2023-03-03T13:45:16.293Z,13.20
2023-03-03T13:47:42.540Z,13.21
2023-03-03T13:50:08.805Z,13.21
2023-03-03T13:52:35.098Z,13.20
2023-03-03T13:55:01.339Z,13.20
2023-03-03T13:57:27.631Z,13.20
2023-03-03T13:59:53.870Z,13.19
2023-03-03T14:02:20.087Z,13.20
2023-03-03T14:04:49.759Z,13.20
2023-03-03T14:07:16.502Z,13.20
2023-03-03T14:09:42.741Z,13.20
2023-03-03T14:12:09.099Z,13.20
2023-03-03T14:14:35.312Z,13.21
2023-03-03T14:17:01.550Z,13.21
2023-03-03T14:19:27.822Z,13.21
2023-03-03T14:21:54.032Z,13.22
2023-03-03T14:24:20.223Z,13.21
2023-03-03T14:26:46.414Z,13.22
2023-03-03T14:29:12.623Z,13.23
2023-03-03T14:31:38.800Z,13.24
2023-03-03T14:34:04.974Z,13.24
2023-03-03T14:36:31.159Z,13.22
2023-03-03T14:38:57.444Z,13.23
2023-03-03T14:41:23.640Z,13.23
2023-03-03T14:43:49.858Z,13.24
2023-03-03T14:46:16.171Z,13.24
2023-03-03T14:48:42.379Z,13.24
2023-03-03T14:51:08.587Z,13.24
2023-03-03T14:53:34.777Z,13.24
2023-03-03T14:56:00.993Z,13.24
2023-03-03T14:58:27.203Z,13.25
2023-03-03T15:00:53.368Z,13.25
2023-03-03T15:03:19.564Z,13.25
2023-03-03T15:05:45.777Z,13.25
2023-03-03T15:08:11.959Z,13.25
2023-03-03T15:10:38.152Z,13.25
2023-03-03T15:13:04.363Z,13.25
2023-03-03T15:15:30.540Z,13.25
2023-03-03T15:17:56.731Z,13.24
2023-03-03T15:20:22.943Z,13.25
2023-03-03T15:22:49.174Z,13.26
2023-03-03T15:25:15.393Z,13.24
2023-03-03T15:27:41.629Z,13.26
2023-03-03T15:30:07.867Z,13.27
2023-03-03T15:32:34.285Z,13.26
2023-03-03T15:35:00.625Z,13.25
2023-03-03T15:37:26.838Z,13.26
2023-03-03T15:39:53.051Z,13.26
2023-03-03T15:42:19.338Z,13.26
2023-03-03T15:44:45.531Z,13.26
2023-03-03T15:47:11.730Z,13.27
2023-03-03T15:49:38.474Z,13.27
2023-03-03T15:52:04.724Z,13.27
2023-03-03T15:54:30.927Z,13.27
2023-03-03T15:56:58.533Z,13.27
2023-03-03T15:59:24.765Z,13.27
2023-03-03T16:01:50.938Z,13.28
2023-03-03T16:04:17.167Z,13.28
2023-03-03T16:06:43.280Z,13.28
2023-03-03T16:09:09.409Z,13.28
2023-03-03T16:11:35.540Z,13.28
2023-03-03T16:14:01.962Z,13.29
2023-03-03T16:16:28.091Z,13.28
2023-03-03T16:18:54.243Z,13.29
2023-03-03T16:21:20.333Z,13.28
2023-03-03T16:23:46.681Z,13.28
2023-03-03T16:26:12.880Z,13.29
2023-03-03T16:28:38.988Z,13.30
2023-03-03T16:31:05.201Z,13.30
2023-03-03T16:33:31.390Z,13.29
2023-03-03T16:35:57.530Z,13.29
2023-03-03T16:38:23.622Z,13.31
2023-03-03T16:40:49.782Z,13.30
2023-03-03T16:43:15.922Z,13.30
2023-03-03T16:45:42.119Z,13.31
2023-03-03T16:48:08.294Z,13.30
2023-03-03T16:50:34.466Z,13.30
2023-03-03T16:53:00.566Z,13.30
2023-03-03T16:55:26.695Z,13.30
2023-03-03T16:57:52.899Z,13.31
2023-03-03T17:00:19.101Z,13.31
2023-03-03T17:02:45.424Z,13.31
2023-03-03T17:05:16.525Z,13.30
2023-03-03T17:07:42.645Z,13.30
2023-03-03T17:10:08.795Z,13.32
2023-03-03T17:12:34.971Z,13.30
2023-03-03T17:15:01.156Z,13.31
2023-03-03T17:17:27.300Z,13.31
2023-03-03T17:19:53.461Z,13.31
2023-03-03T17:22:19.588Z,13.31
2023-03-03T17:24:45.815Z,13.31
2023-03-03T17:27:12.018Z,13.31
2023-03-03T17:29:38.181Z,13.30
2023-03-03T17:32:04.449Z,13.30
2023-03-03T17:34:30.673Z,13.30
2023-03-03T17:36:56.845Z,13.30
2023-03-03T17:39:23.773Z,13.29
2023-03-03T17:41:52.026Z,13.30
2023-03-03T17:44:18.246Z,13.30
2023-03-03T17:46:44.518Z,13.29
2023-03-03T17:49:20.184Z,13.29
2023-03-03T17:54:34.055Z,13.29
2023-03-03T17:57:00.516Z,13.29
2023-03-03T17:59:26.835Z,13.28
2023-03-03T18:01:53.098Z,13.29
2023-03-03T18:04:19.318Z,13.29
2023-03-03T18:06:51.414Z,13.29
2023-03-03T18:09:21.728Z,13.29
2023-03-03T18:11:47.998Z,13.31
2023-03-03T18:14:14.235Z,13.30
2023-03-03T18:16:40.592Z,13.31
2023-03-03T18:19:15.508Z,13.29
2023-03-03T18:21:41.688Z,13.30
2023-03-03T18:24:07.797Z,13.30
2023-03-03T18:26:34.298Z,13.30
2023-03-03T18:29:00.886Z,13.31
2023-03-03T18:31:27.192Z,13.30
2023-03-03T18:33:53.769Z,13.30
2023-03-03T18:36:23.184Z,13.30
2023-03-03T18:38:50.653Z,13.31
2023-03-03T18:41:23.669Z,13.30
2023-03-03T18:43:49.823Z,13.31
2023-03-03T18:46:16.058Z,13.30
2023-03-03T18:48:42.370Z,13.31
2023-03-03T18:51:08.503Z,13.32
2023-03-03T18:53:34.685Z,13.31
2023-03-03T18:56:06.839Z,13.30
2023-03-03T18:58:40.208Z,13.30
2023-03-03T19:01:06.425Z,13.30
2023-03-03T19:03:32.543Z,13.31
2023-03-03T19:05:58.699Z,13.30
2023-03-03T19:08:25.271Z,13.30
2023-03-03T19:10:51.390Z,13.31
2023-03-03T19:13:17.501Z,13.30
2023-03-03T19:15:43.688Z,13.29
2023-03-03T19:18:09.842Z,13.30
2023-03-03T19:20:35.996Z,13.31
2023-03-03T19:23:02.124Z,13.30
2023-03-03T19:25:28.286Z,13.30
2023-03-03T19:27:56.291Z,13.29
2023-03-03T19:30:22.534Z,13.28
2023-03-03T19:32:48.740Z,13.28
2023-03-03T19:35:14.982Z,13.28
2023-03-03T19:37:41.140Z,13.29
2023-03-03T19:40:07.260Z,13.28
2023-03-03T19:42:33.362Z,13.29
2023-03-03T19:44:59.485Z,13.28
2023-03-03T19:47:25.606Z,13.28
2023-03-03T19:49:51.746Z,13.28
2023-03-03T19:52:18.011Z,13.28
2023-03-03T19:54:44.127Z,13.29
2023-03-03T19:57:10.310Z,13.29
2023-03-03T19:59:36.435Z,13.29
2023-03-03T20:02:02.634Z,13.30
2023-03-03T20:04:28.862Z,13.30
2023-03-03T20:06:55.028Z,13.31
2023-03-03T20:09:21.127Z,13.30
2023-03-03T20:11:47.270Z,13.29
2023-03-03T20:14:13.406Z,13.31
2023-03-03T20:16:39.533Z,13.31
2023-03-03T20:19:05.688Z,13.31
2023-03-03T20:21:31.812Z,13.30
2023-03-03T20:23:57.913Z,13.31
2023-03-03T20:26:24.033Z,13.30
2023-03-03T20:28:50.167Z,13.31
2023-03-03T20:31:16.310Z,13.31
2023-03-03T20:33:42.438Z,13.31
2023-03-03T20:36:08.559Z,13.31
2023-03-03T20:38:34.651Z,13.30
2023-03-03T20:41:00.757Z,13.30
2023-03-03T20:43:26.906Z,13.30
2023-03-03T20:45:53.104Z,13.30
2023-03-03T20:48:19.237Z,13.31
2023-03-03T20:50:45.366Z,13.31
2023-03-03T20:53:11.463Z,13.31
2023-03-03T20:55:37.564Z,13.32
2023-03-03T20:58:03.676Z,13.31
2023-03-03T21:00:29.786Z,13.30
2023-03-03T21:02:55.917Z,13.31
2023-03-03T21:05:22.054Z,13.31
2023-03-03T21:07:48.180Z,13.31
2023-03-03T21:10:21.962Z,13.31
2023-03-03T21:12:48.314Z,13.32
2023-03-03T21:15:14.463Z,13.33
2023-03-03T21:17:40.595Z,13.32
2023-03-03T21:20:07.194Z,13.31
2023-03-03T21:22:33.397Z,13.33
2023-03-03T21:24:59.510Z,13.33
2023-03-03T21:27:25.739Z,13.33
2023-03-03T21:29:51.912Z,13.33
2023-03-03T21:32:18.117Z,13.32
2023-03-03T21:34:44.306Z,13.33
2023-03-03T21:37:10.471Z,13.32
2023-03-03T21:39:36.642Z,13.33
2023-03-03T21:42:02.847Z,13.32
2023-03-03T21:44:28.952Z,13.33
2023-03-03T21:46:56.912Z,13.34
2023-03-03T21:49:24.657Z,13.34
2023-03-03T21:51:50.773Z,13.34
2023-03-03T21:54:16.870Z,13.35
2023-03-03T21:56:43.015Z,13.35
2023-03-03T21:59:09.119Z,13.35
2023-03-03T22:01:38.068Z,13.35
2023-03-03T22:04:04.454Z,13.35
2023-03-03T22:06:30.559Z,13.35
2023-03-03T22:08:56.766Z,13.36
2023-03-03T22:11:23.008Z,13.36
2023-03-03T22:13:49.188Z,13.35
2023-03-03T22:16:15.575Z,13.35
2023-03-03T22:18:41.802Z,13.36
2023-03-03T22:21:07.943Z,13.35
2023-03-03T22:23:34.095Z,13.36
2023-03-03T22:26:00.239Z,13.36
2023-03-03T22:28:26.365Z,13.36
2023-03-03T22:30:52.507Z,13.37
2023-03-03T22:33:18.704Z,13.36
2023-03-03T22:35:44.850Z,13.37
2023-03-03T22:38:11.028Z,13.37
2023-03-03T22:40:37.220Z,13.36
2023-03-03T22:43:03.410Z,13.38
2023-03-03T22:45:29.527Z,13.36
2023-03-03T22:47:55.940Z,13.37
2023-03-03T22:50:22.035Z,13.38
2023-03-03T22:52:48.167Z,13.38
2023-03-03T22:55:14.349Z,13.38
2023-03-03T22:57:40.515Z,13.38
2023-03-03T23:00:06.624Z,13.38
2023-03-03T23:02:32.743Z,13.39
2023-03-03T23:04:58.937Z,13.39
2023-03-03T23:07:25.093Z,13.38
2023-03-03T23:09:51.222Z,13.38
2023-03-03T23:12:17.318Z,13.39
2023-03-03T23:14:43.449Z,13.38
2023-03-03T23:17:09.648Z,13.39
2023-03-03T23:19:35.732Z,13.39
2023-03-03T23:22:01.868Z,13.40
2023-03-03T23:24:28.086Z,13.40
2023-03-03T23:26:54.250Z,13.41
2023-03-03T23:29:20.388Z,13.41
2023-03-03T23:31:46.631Z,13.41
2023-03-03T23:34:12.783Z,13.42
2023-03-03T23:36:38.913Z,13.41
2023-03-03T23:39:05.201Z,13.41
2023-03-03T23:41:31.429Z,13.42
2023-03-03T23:43:57.551Z,13.41
2023-03-03T23:46:23.781Z,13.41
2023-03-03T23:48:49.957Z,13.41
2023-03-03T23:51:16.074Z,13.41
2023-03-03T23:53:42.210Z,13.43
2023-03-03T23:56:08.362Z,13.42
2023-03-03T23:58:34.511Z,13.42
